Weather History for KIOB - April, 2013

Change the Weather History Date:

Thursday, April 18, 2013

  Actual Average Record
Temperature  
Mean Temperature 72 °F -  
Max Temperature 82 °F 71 °F 82 °F (2013)
Min Temperature 62 °F 46 °F 41 °F (2014)
Cooling Degree Days 7    
Growing Degree Days 22 (Base 50)    
Moisture  
Dew Point 56 °F    
Average Humidity 58    
Maximum Humidity 77    
Minimum Humidity 37    
Precipitation  
Precipitation 0.00 in - - ()
Sea Level Pressure  
Sea Level Pressure 29.92 in    
Wind  
Wind Speed 12 mph (SSW)    
Max Wind Speed 23 mph    
Max Gust Speed 33 mph    
Visibility 10 miles    
Events      
Averages and records for this station are not official NWS values.
T = Trace of Precipitation, MM = Missing Value Source: NWS Daily Summary

Daily Weather History Graph

Daily Weather History Graph

Search for Another Location

Airport or City:

Trip Planner

Search our weather history database for the weather conditions in past years. The results will help you decide how hot, cold, wet, or windy it might be!

Date:

Astronomy

Apr. 18, 2013 Rise Set
Actual Time 6:55 AM EDT 8:15 PM EDT
Civil Twilight 6:28 AM EDT 8:42 PM EDT
Nautical Twilight 5:55 AM EDT 9:15 PM EDT
Astronomical Twilight 5:21 AM EDT 9:49 PM EDT
Moon 1:07 PM EDT (4/18) 2:27 AM EDT (4/18)
Length of Visible Light 14h 13m
Length of Day
13h 19m
First Quarter, 51% of the Moon is Illuminated
Apr 18
First Quarter
Apr 25
Full
May 2
Last Quarter
May 9
New
May 18
First Quarter

Hourly Weather History & Observations

Time (EDT) Temp. Heat Index Dew Point Humidity Pressure Visibility Wind Dir Wind Speed Gust Speed Precip Events Conditions
12:15 AM 64.4 °F - 57.2 °F 77% 30.03 in 10.0 mi South 5.8 mph - N/A   Clear
12:35 AM 64.4 °F - 57.2 °F 77% 30.03 in 10.0 mi South 6.9 mph - N/A   Clear
12:55 AM 64.4 °F - 55.4 °F 73% 30.02 in 10.0 mi South 8.1 mph - N/A   Clear
1:15 AM 64.4 °F - 55.4 °F 73% 30.01 in 10.0 mi South 8.1 mph - N/A   Clear
1:35 AM 64.4 °F - 55.4 °F 73% 30.01 in 10.0 mi South 6.9 mph - N/A   Clear
1:55 AM 64.4 °F - 55.4 °F 73% 30.00 in 10.0 mi South 6.9 mph - N/A   Clear
2:15 AM 64.4 °F - 55.4 °F 73% 30.00 in 10.0 mi SSW 9.2 mph - N/A   Clear
2:35 AM 62.6 °F - 55.4 °F 77% 29.99 in 10.0 mi SSW 9.2 mph - N/A   Clear
2:55 AM 62.6 °F - 55.4 °F 77% 29.98 in 10.0 mi SSW 8.1 mph - N/A   Clear
3:15 AM 62.6 °F - 55.4 °F 77% 29.97 in 10.0 mi SSW 10.4 mph - N/A   Clear
3:35 AM 62.6 °F - 55.4 °F 77% 29.97 in 10.0 mi SSW 10.4 mph - N/A   Clear
3:55 AM 62.6 °F - 55.4 °F 77% 29.97 in 10.0 mi SSW 10.4 mph - N/A   Clear
4:15 AM 62.6 °F - 55.4 °F 77% 29.97 in 10.0 mi SSW 10.4 mph - N/A   Clear
4:35 AM 64.4 °F - 55.4 °F 73% 29.96 in 10.0 mi SSW 12.7 mph - N/A   Clear
4:55 AM 64.4 °F - 55.4 °F 73% 29.96 in 10.0 mi SSW 11.5 mph 16.1 mph N/A   Clear
5:15 AM 64.4 °F - 55.4 °F 73% 29.96 in 10.0 mi SSW 10.4 mph - N/A   Clear
5:35 AM 62.6 °F - 55.4 °F 77% 29.96 in 10.0 mi SSW 9.2 mph 16.1 mph N/A   Clear
5:55 AM 64.4 °F - 55.4 °F 73% 29.97 in 10.0 mi SSW 10.4 mph 16.1 mph N/A   Clear
6:15 AM 64.4 °F - 55.4 °F 73% 29.97 in 10.0 mi SSW 12.7 mph - N/A   Clear
6:35 AM 64.4 °F - 55.4 °F 73% 29.98 in 10.0 mi SSW 11.5 mph - N/A   Clear
6:55 AM 64.4 °F - 55.4 °F 73% 29.98 in 10.0 mi SSW 10.4 mph - N/A   Clear
7:15 AM 62.6 °F - 55.4 °F 77% 29.98 in 10.0 mi SSW 9.2 mph - N/A   Clear
7:35 AM 64.4 °F - 55.4 °F 73% 29.99 in 10.0 mi SSW 12.7 mph - N/A   Clear
7:55 AM 64.4 °F - 57.2 °F 77% 29.99 in 10.0 mi SSW 11.5 mph 18.4 mph N/A   Clear
8:15 AM 66.2 °F - 57.2 °F 73% 30.00 in 10.0 mi SW 10.4 mph - N/A   Clear
8:35 AM 68.0 °F - 59.0 °F 73% 30.00 in 10.0 mi SW 8.1 mph - N/A   Clear
8:55 AM 69.8 °F - 59.0 °F 68% 30.00 in 10.0 mi SSW 12.7 mph - N/A   Clear
9:15 AM 71.6 °F - 60.8 °F 69% 30.00 in 10.0 mi SW 11.5 mph 23.0 mph N/A   Clear
9:35 AM 71.6 °F - 60.8 °F 69% 30.00 in 10.0 mi SW 13.8 mph 18.4 mph N/A   Clear
9:55 AM 71.6 °F - 59.0 °F 64% 29.99 in 10.0 mi SW 19.6 mph 25.3 mph N/A   Clear
10:15 AM 73.4 °F - 59.0 °F 61% 29.99 in 10.0 mi SW 11.5 mph 24.2 mph N/A   Clear
10:35 AM 73.4 °F - 59.0 °F 61% 29.98 in 10.0 mi SW 15.0 mph 23.0 mph N/A   Clear
10:55 AM 75.2 °F - 59.0 °F 57% 29.97 in 10.0 mi SW 16.1 mph 24.2 mph N/A   Clear
11:15 AM 77.0 °F - 59.0 °F 54% 29.98 in 10.0 mi SW 20.7 mph 31.1 mph N/A   Clear
11:35 AM 77.0 °F - 59.0 °F 54% 29.97 in 10.0 mi SW 15.0 mph 31.1 mph N/A   Clear
11:55 AM 78.8 °F - 59.0 °F 51% 29.95 in 10.0 mi SW 15.0 mph 26.5 mph N/A   Clear
12:15 PM 78.8 °F - 59.0 °F 51% 29.94 in 10.0 mi SSW 23.0 mph 27.6 mph N/A   Clear
12:35 PM 78.8 °F - 59.0 °F 51% 29.94 in 10.0 mi SSW 18.4 mph 29.9 mph N/A   Clear
12:55 PM 78.8 °F - 59.0 °F 51% 29.93 in 10.0 mi SSW 17.3 mph 33.4 mph N/A   Clear
1:15 PM 80.6 °F 81.1 °F 59.0 °F 48% 29.92 in 10.0 mi SSW 19.6 mph 27.6 mph N/A   Clear
1:35 PM 80.6 °F 81.1 °F 59.0 °F 48% 29.92 in 10.0 mi SW 18.4 mph 26.5 mph N/A   Clear
1:55 PM 80.6 °F 81.1 °F 59.0 °F 48% 29.91 in 10.0 mi SSW 17.3 mph 28.8 mph N/A   Scattered Clouds
2:15 PM 80.6 °F 80.5 °F 55.4 °F 42% 29.91 in 10.0 mi SSW 21.9 mph 29.9 mph N/A   Scattered Clouds
2:35 PM 82.4 °F 82.0 °F 57.2 °F 42% 29.90 in 10.0 mi SW 13.8 mph 26.5 mph N/A   Scattered Clouds
2:55 PM 80.6 °F 80.5 °F 55.4 °F 42% 29.89 in 10.0 mi SW 17.3 mph 25.3 mph N/A   Clear
3:15 PM 82.4 °F 81.7 °F 55.4 °F 39% 29.88 in 10.0 mi SW 15.0 mph 29.9 mph N/A   Clear
3:35 PM 80.6 °F 80.3 °F 53.6 °F 39% 29.88 in 10.0 mi SW 17.3 mph 28.8 mph N/A   Clear
3:55 PM 82.4 °F 81.7 °F 55.4 °F 39% 29.87 in 10.0 mi SSW 18.4 mph 23.0 mph N/A   Scattered Clouds
4:35 PM 82.4 °F 81.4 °F 53.6 °F 37% 29.85 in 10.0 mi SW 17.3 mph 24.2 mph N/A   Clear
4:55 PM 80.6 °F 80.5 °F 55.4 °F 42% 29.84 in 10.0 mi SSW 15.0 mph 24.2 mph N/A   Clear
5:15 PM 80.6 °F 80.3 °F 53.6 °F 39% 29.84 in 10.0 mi SSW 16.1 mph 26.5 mph N/A   Clear
5:35 PM 78.8 °F - 53.6 °F 42% 29.84 in 10.0 mi SSW 13.8 mph 20.7 mph N/A   Clear
5:55 PM 78.8 °F - 53.6 °F 42% 29.83 in 10.0 mi SSW 17.3 mph 24.2 mph N/A   Clear
6:15 PM 80.6 °F 80.3 °F 53.6 °F 39% 29.83 in 10.0 mi SSW 18.4 mph 25.3 mph N/A   Clear
6:35 PM 80.6 °F 80.3 °F 53.6 °F 39% 29.81 in 10.0 mi SW 13.8 mph 17.3 mph N/A   Clear
6:55 PM 78.8 °F - 51.8 °F 39% 29.81 in 10.0 mi SW 12.7 mph 24.2 mph N/A   Clear
7:15 PM 78.8 °F - 51.8 °F 39% 29.80 in 10.0 mi SSW 18.4 mph 24.2 mph N/A   Clear
7:35 PM 77.0 °F - 51.8 °F 41% 29.80 in 10.0 mi SW 17.3 mph 25.3 mph N/A   Clear
7:55 PM 77.0 °F - 51.8 °F 41% 29.80 in 10.0 mi SSW 18.4 mph 26.5 mph N/A   Clear
8:15 PM 77.0 °F - 50.0 °F 39% 29.80 in 10.0 mi SSW 17.3 mph 26.5 mph N/A   Clear
8:35 PM 75.2 °F - 50.0 °F 41% 29.80 in 10.0 mi SSW 16.1 mph 25.3 mph N/A   Clear
8:55 PM 75.2 °F - 50.0 °F 41% 29.80 in 10.0 mi SSW 18.4 mph 24.2 mph N/A   Clear
9:15 PM 75.2 °F - 51.8 °F 44% 29.79 in 10.0 mi SSW 15.0 mph 20.7 mph N/A   Clear
9:35 PM 73.4 °F - 51.8 °F 47% 29.79 in 10.0 mi SSW 15.0 mph 23.0 mph N/A   Clear
10:55 PM 73.4 °F - 51.8 °F 47% 29.76 in 10.0 mi SSW 18.4 mph 26.5 mph N/A   Clear
11:35 PM 73.4 °F - 51.8 °F 47% 29.73 in 10.0 mi SSW 18.4 mph 24.2 mph N/A   Clear
11:55 PM 73.4 °F - 53.6 °F 50% 29.71 in 10.0 mi SSW 19.6 mph 26.5 mph N/A   Clear